createdAt,value
2023-02-24T00:00:10.781Z,87916.00
2023-02-24T00:01:10.765Z,87920.00
2023-02-24T00:02:10.807Z,87916.00
2023-02-24T00:03:10.699Z,87916.00
2023-02-24T00:04:10.665Z,87914.00
2023-02-24T00:05:10.635Z,87914.00
2023-02-24T00:06:10.614Z,87916.00
2023-02-24T00:07:10.705Z,87918.00
2023-02-24T00:08:10.570Z,87918.00
2023-02-24T00:09:10.532Z,87916.00
2023-02-24T00:10:10.505Z,87912.00
2023-02-24T00:11:10.497Z,87912.00
2023-02-24T00:12:10.469Z,87912.00
2023-02-24T00:13:10.465Z,87912.00
2023-02-24T00:14:10.485Z,87914.00
2023-02-24T00:15:10.479Z,87912.00
2023-02-24T00:16:10.491Z,87916.00
2023-02-24T00:17:10.542Z,87916.00
2023-02-24T00:18:10.351Z,87914.00
2023-02-24T00:19:10.382Z,87914.00
2023-02-24T00:20:10.284Z,87912.00
2023-02-24T00:21:10.276Z,87914.00
2023-02-24T00:22:10.239Z,87908.00
2023-02-24T00:23:10.278Z,87908.00
2023-02-24T00:24:10.197Z,87903.00
2023-02-24T00:25:10.175Z,87908.00
2023-02-24T00:26:10.145Z,87903.00
2023-02-24T00:27:10.119Z,87905.00
2023-02-24T00:28:10.105Z,87903.00
2023-02-24T00:29:10.091Z,87899.00
2023-02-24T00:30:10.048Z,87905.00
2023-02-24T00:31:10.146Z,87903.00
2023-02-24T00:32:10.208Z,87905.00
2023-02-24T00:33:09.985Z,87905.00
2023-02-24T00:34:09.965Z,87905.00
2023-02-24T00:35:09.928Z,87903.00
2023-02-24T00:36:09.911Z,87905.00
2023-02-24T00:37:09.905Z,87903.00
2023-02-24T00:38:09.869Z,87899.00
2023-02-24T00:39:09.834Z,87905.00
2023-02-24T00:40:09.813Z,87899.00
2023-02-24T00:41:09.788Z,87903.00
2023-02-24T00:42:09.783Z,87897.00
2023-02-24T00:43:09.758Z,87899.00
2023-02-24T00:44:09.739Z,87899.00
2023-02-24T00:45:09.706Z,87897.00
2023-02-24T00:46:09.744Z,87893.00
2023-02-24T00:47:09.677Z,87895.00
2023-02-24T00:48:09.656Z,87897.00
2023-02-24T00:49:09.632Z,87893.00
2023-02-24T00:50:09.613Z,87893.00
2023-02-24T00:51:09.576Z,87891.00
2023-02-24T00:52:09.561Z,87893.00
2023-02-24T00:53:09.542Z,87889.00
2023-02-24T00:54:09.513Z,87893.00
2023-02-24T00:55:09.489Z,87887.00
2023-02-24T00:56:09.474Z,87883.00
2023-02-24T00:57:09.453Z,87885.00
2023-02-24T00:58:09.440Z,87887.00
2023-02-24T00:59:09.395Z,87883.00
2023-02-24T01:00:09.366Z,87883.00
2023-02-24T01:01:09.393Z,87883.00
2023-02-24T01:02:09.320Z,87885.00
2023-02-24T01:03:09.316Z,87883.00
2023-02-24T01:04:09.308Z,87883.00
2023-02-24T01:05:09.257Z,87885.00
2023-02-24T01:06:09.233Z,87883.00
2023-02-24T01:07:09.205Z,87875.00
2023-02-24T01:08:09.194Z,87883.00
2023-02-24T01:09:09.164Z,87877.00
2023-02-24T01:10:09.152Z,87877.00
2023-02-24T01:11:09.126Z,87877.00
2023-02-24T01:12:09.123Z,87875.00
2023-02-24T01:13:09.075Z,87873.00
2023-02-24T01:14:09.064Z,87869.00
2023-02-24T01:15:09.121Z,87871.00
2023-02-24T01:16:09.075Z,87867.00
2023-02-24T01:17:08.992Z,87869.00
2023-02-24T01:18:08.954Z,87863.00
2023-02-24T01:19:08.935Z,87863.00
2023-02-24T01:20:08.906Z,87863.00
2023-02-24T02:00:08.005Z,87842.00
2023-02-24T02:01:07.974Z,87844.00
2023-02-24T02:02:08.119Z,87844.00
2023-02-24T02:03:07.939Z,87842.00
2023-02-24T02:04:07.926Z,87836.00
2023-02-24T02:05:07.882Z,87836.00
2023-02-24T02:06:07.864Z,87834.00
2023-02-24T02:07:07.837Z,87834.00
2023-02-24T02:08:07.823Z,87834.00
2023-02-24T02:09:07.800Z,87832.00
2023-02-24T02:10:07.777Z,87828.00
2023-02-24T02:11:07.773Z,87828.00
2023-02-24T02:12:07.739Z,87828.00
2023-02-24T02:13:07.734Z,87832.00
2023-02-24T02:14:07.694Z,87828.00
2023-02-24T02:15:07.677Z,87828.00
2023-02-24T02:16:07.701Z,87826.00
2023-02-24T02:17:07.616Z,87824.00
2023-02-24T02:18:07.627Z,87826.00
2023-02-24T02:19:07.573Z,87824.00
2023-02-24T02:20:07.569Z,87824.00
2023-02-24T02:21:07.518Z,87826.00
2023-02-24T02:22:07.496Z,87826.00
2023-02-24T02:23:07.514Z,87830.00
2023-02-24T02:24:07.468Z,87826.00
2023-02-24T02:25:07.447Z,87822.00
2023-02-24T02:26:07.425Z,87822.00
2023-02-24T02:27:07.406Z,87820.00
2023-02-24T02:28:07.372Z,87826.00
2023-02-24T02:29:07.351Z,87830.00
2023-02-24T02:30:07.344Z,87830.00
2023-02-24T02:31:07.538Z,87826.00
2023-02-24T02:32:07.379Z,87824.00
2023-02-24T02:33:07.261Z,87822.00
2023-02-24T02:34:07.237Z,87824.00
2023-02-24T02:35:07.218Z,87826.00
2023-02-24T02:36:07.253Z,87828.00
2023-02-24T02:37:07.159Z,87826.00
2023-02-24T02:38:07.138Z,87826.00
2023-02-24T02:39:07.119Z,87830.00
2023-02-24T02:40:07.105Z,87826.00
2023-02-24T02:41:07.106Z,87830.00
2023-02-24T02:42:07.093Z,87830.00
2023-02-24T02:43:07.017Z,87830.00
2023-02-24T02:44:06.993Z,87830.00
2023-02-24T02:45:06.991Z,87832.00
2023-02-24T02:46:07.001Z,87826.00
2023-02-24T02:47:06.905Z,87824.00
2023-02-24T02:48:06.875Z,87822.00
2023-02-24T02:49:06.838Z,87826.00
2023-02-24T02:50:06.836Z,87828.00
2023-02-24T02:51:06.802Z,87822.00
2023-02-24T02:52:06.771Z,87824.00
2023-02-24T02:53:06.739Z,87826.00
2023-02-24T02:54:06.714Z,87826.00
2023-02-24T02:55:06.691Z,87824.00
2023-02-24T02:56:06.676Z,87826.00
2023-02-24T02:57:06.645Z,87828.00
2023-02-24T02:58:06.624Z,87828.00
2023-02-24T02:59:06.600Z,87828.00
2023-02-24T03:00:06.586Z,87832.00
2023-02-24T03:01:06.654Z,87830.00
2023-02-24T03:02:06.547Z,87828.00
2023-02-24T03:03:06.514Z,87828.00
2023-02-24T03:04:06.497Z,87830.00
2023-02-24T03:05:06.517Z,87830.00
2023-02-24T03:06:06.450Z,87828.00
2023-02-24T03:07:06.417Z,87830.00
2023-02-24T03:08:06.404Z,87828.00
2023-02-24T03:09:06.369Z,87826.00
2023-02-24T03:10:06.354Z,87826.00
2023-02-24T03:11:06.330Z,87828.00
2023-02-24T03:12:06.315Z,87828.00
2023-02-24T03:13:06.313Z,87828.00
2023-02-24T03:14:06.281Z,87830.00
2023-02-24T03:15:06.242Z,87830.00
2023-02-24T03:16:06.227Z,87830.00
2023-02-24T03:17:06.198Z,87828.00
2023-02-24T03:18:06.180Z,87826.00
2023-02-24T03:19:06.169Z,87830.00
2023-02-24T03:20:06.136Z,87828.00
2023-02-24T03:21:06.131Z,87830.00
2023-02-24T03:22:06.109Z,87828.00
2023-02-24T03:23:06.103Z,87824.00
2023-02-24T03:24:06.051Z,87820.00
2023-02-24T03:25:06.035Z,87824.00
2023-02-24T03:26:06.077Z,87824.00
2023-02-24T03:27:06.006Z,87818.00
2023-02-24T03:28:05.974Z,87822.00
2023-02-24T03:29:05.958Z,87822.00
2023-02-24T03:30:05.955Z,87822.00
2023-02-24T03:31:05.973Z,87818.00
2023-02-24T03:32:06.057Z,87820.00
2023-02-24T03:33:05.881Z,87822.00
2023-02-24T03:34:05.864Z,87820.00
2023-02-24T03:35:05.864Z,87816.00
2023-02-24T03:36:05.825Z,87816.00
2023-02-24T03:37:05.801Z,87814.00
2023-02-24T03:38:05.785Z,87816.00
2023-02-24T03:39:05.768Z,87814.00
2023-02-24T03:40:05.738Z,87814.00
2023-02-24T03:41:05.723Z,87812.00
2023-02-24T03:59:05.350Z,87808.00
2023-02-24T04:00:05.356Z,87806.00
2023-02-24T04:02:05.373Z,87804.00
2023-02-24T04:03:05.267Z,87802.00
2023-02-24T04:04:05.260Z,87808.00
2023-02-24T04:05:05.306Z,87804.00
2023-02-24T04:06:05.205Z,87806.00
2023-02-24T04:07:05.172Z,87808.00
2023-02-24T04:08:05.151Z,87804.00
2023-02-24T04:09:05.126Z,87804.00
2023-02-24T04:10:05.114Z,87802.00
2023-02-24T04:11:05.080Z,87800.00
2023-02-24T04:12:05.059Z,87800.00
2023-02-24T04:13:05.020Z,87798.00
2023-02-24T04:14:05.002Z,87795.00
2023-02-24T04:15:04.971Z,87798.00
2023-02-24T04:16:05.045Z,87795.00
2023-02-24T04:17:04.938Z,87789.00
2023-02-24T04:18:04.923Z,87793.00
2023-02-24T04:19:04.902Z,87791.00
2023-02-24T04:20:04.870Z,87787.00
2023-02-24T04:21:04.864Z,87783.00
2023-02-24T04:22:04.823Z,87779.00
2023-02-24T04:23:04.853Z,87779.00
2023-02-24T04:24:04.783Z,87781.00
2023-02-24T04:25:04.753Z,87783.00
2023-02-24T04:26:04.754Z,87781.00
2023-02-24T04:27:04.717Z,87777.00
2023-02-24T04:28:04.682Z,87777.00
2023-02-24T04:29:04.660Z,87779.00
2023-02-24T04:30:04.636Z,87779.00
2023-02-24T04:31:04.725Z,87777.00
2023-02-24T04:32:04.850Z,87777.00
2023-02-24T04:33:04.589Z,87777.00
2023-02-24T04:34:04.557Z,87779.00
2023-02-24T04:35:04.529Z,87781.00
2023-02-24T04:36:04.517Z,87777.00
2023-02-24T04:37:04.509Z,87775.00
2023-02-24T04:38:04.482Z,87773.00
2023-02-24T04:39:04.467Z,87771.00
2023-02-24T04:40:04.456Z,87775.00
2023-02-24T04:41:04.423Z,87775.00
2023-02-24T04:42:04.403Z,87769.00
2023-02-24T04:43:04.397Z,87765.00
2023-02-24T04:44:04.368Z,87761.00
2023-02-24T04:45:04.342Z,87759.00
2023-02-24T04:46:04.348Z,87763.00
2023-02-24T04:47:04.311Z,87763.00
2023-02-24T04:48:04.279Z,87759.00
2023-02-24T04:49:04.262Z,87755.00
2023-02-24T04:50:04.235Z,87757.00
2023-02-24T04:51:04.221Z,87753.00
2023-02-24T04:52:04.209Z,87748.00
2023-02-24T04:53:04.174Z,87750.00
2023-02-24T04:54:04.151Z,87744.00
2023-02-24T04:55:04.141Z,87742.00
2023-02-24T04:56:04.114Z,87742.00
2023-02-24T04:57:04.094Z,87746.00
2023-02-24T04:58:04.077Z,87748.00
2023-02-24T04:59:04.051Z,87740.00
2023-02-24T05:00:04.053Z,87740.00
2023-02-24T05:01:04.029Z,87736.00
2023-02-24T05:02:03.991Z,87734.00
2023-02-24T05:03:03.989Z,87734.00
2023-02-24T05:04:04.018Z,87736.00
2023-02-24T05:05:03.926Z,87730.00
2023-02-24T05:06:03.906Z,87728.00
2023-02-24T05:07:03.888Z,87732.00
2023-02-24T05:08:03.865Z,87730.00
2023-02-24T05:09:03.838Z,87732.00
2023-02-24T05:10:03.826Z,87734.00
2023-02-24T05:11:03.837Z,87728.00
2023-02-24T05:12:03.767Z,87728.00
2023-02-24T05:13:03.748Z,87724.00
2023-02-24T05:14:03.726Z,87724.00
2023-02-24T05:15:03.706Z,87724.00
2023-02-24T05:16:03.744Z,87726.00
2023-02-24T05:17:03.668Z,87726.00
2023-02-24T05:18:03.641Z,87722.00
2023-02-24T05:19:03.626Z,87722.00
2023-02-24T05:20:03.608Z,87722.00
2023-02-24T05:21:03.590Z,87716.00
2023-02-24T05:22:03.615Z,87718.00
2023-02-24T05:23:03.546Z,87718.00
2023-02-24T05:24:03.509Z,87706.00
2023-02-24T05:25:03.488Z,87712.00
2023-02-24T05:26:03.463Z,87712.00
2023-02-24T05:27:03.447Z,87710.00
2023-02-24T05:28:03.421Z,87708.00
2023-02-24T05:29:03.400Z,87708.00
2023-02-24T05:30:03.393Z,87704.00
2023-02-24T05:31:03.455Z,87697.00
2023-02-24T05:32:03.464Z,87693.00
2023-02-24T05:33:03.335Z,87704.00
2023-02-24T05:34:03.305Z,87691.00
2023-02-24T05:35:03.288Z,87691.00
2023-02-24T05:36:04.486Z,87691.00
2023-02-24T05:37:03.254Z,87695.00
2023-02-24T05:38:03.259Z,87704.00
2023-02-24T05:39:03.204Z,87697.00
2023-02-24T05:40:03.186Z,87695.00
2023-02-24T05:41:03.160Z,87695.00
2023-02-24T05:42:03.131Z,87690.00
2023-02-24T05:43:03.126Z,87695.00
2023-02-24T05:44:03.094Z,87697.00
2023-02-24T05:45:03.068Z,87693.00
2023-02-24T05:46:03.045Z,87691.00
2023-02-24T05:47:03.115Z,87690.00
2023-02-24T05:48:03.019Z,87693.00
2023-02-24T05:49:03.010Z,87704.00
2023-02-24T05:50:02.984Z,87695.00
2023-02-24T05:51:04.858Z,87690.00
2023-02-24T05:52:02.948Z,87693.00
2023-02-24T05:53:02.917Z,87693.00
2023-02-24T05:54:02.903Z,87695.00
2023-02-24T05:55:02.882Z,87691.00
2023-02-24T05:56:02.863Z,87693.00
2023-02-24T05:57:02.842Z,87690.00
2023-02-24T05:58:02.820Z,87686.00
2023-02-24T05:59:02.816Z,87686.00
2023-02-24T06:00:02.815Z,87691.00
2023-02-24T06:01:02.752Z,87691.00
2023-02-24T06:04:02.700Z,87686.00
2023-02-24T06:05:02.674Z,87688.00
2023-02-24T06:06:02.648Z,87688.00
2023-02-24T06:07:02.629Z,87684.00
2023-02-24T06:08:02.621Z,87682.00
2023-02-24T06:09:02.598Z,87690.00
2023-02-24T06:10:02.576Z,87684.00
2023-02-24T07:57:00.032Z,87682.00
2023-02-24T07:58:59.758Z,87680.00
2023-02-24T07:59:59.675Z,87678.00
2023-02-24T08:01:59.630Z,87682.00
2023-02-24T08:02:59.604Z,87678.00
2023-02-24T08:03:59.600Z,87678.00
2023-02-24T08:04:59.544Z,87678.00
2023-02-24T08:05:59.501Z,87674.00
2023-02-24T08:06:59.479Z,87672.00
2023-02-24T08:07:59.496Z,87674.00
2023-02-24T08:08:59.409Z,87670.00
2023-02-24T08:09:59.421Z,87670.00
2023-02-24T08:10:59.365Z,87674.00
2023-02-24T08:11:59.341Z,87670.00
2023-02-24T08:12:59.350Z,87672.00
2023-02-24T08:13:59.302Z,87668.00
2023-02-24T08:14:59.243Z,87670.00
2023-02-24T08:15:59.319Z,87666.00
2023-02-24T08:16:59.200Z,87668.00
2023-02-24T08:17:59.162Z,87662.00
2023-02-24T08:18:59.124Z,87664.00
2023-02-24T08:19:59.081Z,87662.00
2023-02-24T08:20:59.086Z,87662.00
2023-02-24T08:21:59.020Z,87660.00
2023-02-24T08:22:59.002Z,87660.00
2023-02-24T08:23:58.960Z,87658.00
2023-02-24T08:24:58.998Z,87656.00
2023-02-24T08:25:58.985Z,87658.00
2023-02-24T08:26:58.919Z,87656.00
2023-02-24T08:28:07.246Z,87652.00
2023-02-24T08:28:59.815Z,87652.00
2023-02-24T08:29:58.821Z,87650.00
2023-02-24T08:30:58.885Z,87650.00
2023-02-24T08:31:58.854Z,87652.00
2023-02-24T08:32:58.761Z,87650.00
2023-02-24T08:33:58.688Z,87650.00
2023-02-24T08:34:58.666Z,87648.00
2023-02-24T08:35:58.603Z,87650.00
2023-02-24T08:36:58.573Z,87642.00
2023-02-24T08:37:58.534Z,87644.00
2023-02-24T08:38:58.531Z,87644.00
2023-02-24T08:39:58.448Z,87646.00
2023-02-24T08:40:58.489Z,87654.00
2023-02-24T08:41:58.369Z,87648.00
2023-02-24T08:42:58.317Z,87640.00
2023-02-24T08:43:58.288Z,87640.00
2023-02-24T08:44:58.365Z,87640.00
2023-02-24T08:45:58.207Z,87640.00
2023-02-24T08:46:58.208Z,87638.00
2023-02-24T08:47:58.138Z,87638.00
2023-02-24T08:48:58.103Z,87640.00
2023-02-24T08:49:58.087Z,87636.00
2023-02-24T08:50:58.006Z,87638.00
2023-02-24T08:51:57.986Z,87642.00
2023-02-24T08:52:57.940Z,87640.00
2023-02-24T08:53:57.902Z,87638.00
2023-02-24T08:54:57.862Z,87638.00
2023-02-24T08:55:57.915Z,87638.00
2023-02-24T08:56:57.784Z,87640.00
2023-02-24T08:57:57.749Z,87633.00
2023-02-24T08:58:58.074Z,87636.00
2023-02-24T08:59:57.782Z,87633.00
2023-02-24T09:00:57.705Z,87629.00
2023-02-24T09:02:04.788Z,87638.00
2023-02-24T09:02:58.558Z,87625.00
2023-02-24T09:03:57.534Z,87629.00
2023-02-24T09:04:57.514Z,87633.00
2023-02-24T09:05:57.442Z,87627.00
2023-02-24T09:07:00.281Z,87627.00
2023-02-24T09:07:58.384Z,87633.00
2023-02-24T09:08:57.398Z,87631.00
2023-02-24T09:09:57.335Z,87621.00
2023-02-24T09:10:57.298Z,87619.00
2023-02-24T09:11:57.357Z,87617.00
2023-02-24T09:12:57.248Z,87615.00
2023-02-24T09:13:57.228Z,87621.00
2023-02-24T09:14:57.205Z,87619.00
2023-02-24T09:15:57.174Z,87621.00
2023-02-24T09:16:57.145Z,87617.00
2023-02-24T09:17:57.133Z,87615.00
2023-02-24T09:18:57.084Z,87617.00
2023-02-24T09:19:57.065Z,87611.00
2023-02-24T09:20:57.071Z,87611.00
2023-02-24T09:21:57.648Z,87611.00
2023-02-24T09:22:56.968Z,87609.00
2023-02-24T09:23:56.970Z,87611.00
2023-02-24T09:24:56.912Z,87607.00
2023-02-24T09:25:56.905Z,87609.00
2023-02-24T09:26:56.875Z,87611.00
2023-02-24T09:27:56.849Z,87613.00
2023-02-24T09:28:56.905Z,87611.00
2023-02-24T09:29:56.756Z,87613.00
2023-02-24T09:30:56.784Z,87613.00
2023-02-24T09:31:56.817Z,87609.00
2023-02-24T09:32:56.738Z,87607.00
2023-02-24T09:33:56.645Z,87609.00
2023-02-24T09:34:56.614Z,87615.00
2023-02-24T09:35:56.586Z,87613.00
2023-02-24T09:36:56.549Z,87607.00
2023-02-24T09:37:56.513Z,87607.00
2023-02-24T09:38:56.484Z,87603.00
2023-02-24T09:39:56.458Z,87605.00
2023-02-24T09:40:56.437Z,87599.00
2023-02-24T09:41:56.501Z,87607.00
2023-02-24T09:42:56.367Z,87607.00
2023-02-24T09:43:56.358Z,87603.00
2023-02-24T09:44:56.337Z,87601.00
2023-02-24T09:45:56.409Z,87595.00
2023-02-24T09:46:56.355Z,87595.00
2023-02-24T09:47:56.274Z,87595.00
2023-02-24T09:48:56.171Z,87595.00
2023-02-24T09:49:56.349Z,87597.00
2023-02-24T09:51:03.084Z,87593.00
2023-02-24T09:51:57.088Z,87603.00
2023-02-24T09:53:02.937Z,87587.00
2023-02-24T09:53:57.055Z,87597.00
2023-02-24T09:54:55.994Z,87585.00
2023-02-24T09:55:55.962Z,87593.00
2023-02-24T09:56:55.930Z,87593.00
2023-02-24T09:57:55.899Z,87589.00
2023-02-24T09:58:55.879Z,87589.00
2023-02-24T09:59:55.834Z,87587.00
2023-02-24T10:00:55.889Z,87583.00
2023-02-24T10:01:55.834Z,87585.00
2023-02-24T10:02:55.750Z,87585.00
2023-02-24T10:03:55.858Z,87585.00
2023-02-24T11:16:53.627Z,87489.00
2023-02-24T11:17:53.648Z,87493.00
2023-02-24T11:18:53.576Z,87487.00
2023-02-24T11:19:53.541Z,87489.00
2023-02-24T11:20:53.503Z,87485.00
2023-02-24T11:21:53.489Z,87487.00
2023-02-24T11:22:53.437Z,87481.00
2023-02-24T11:23:53.463Z,87483.00
2023-02-24T11:24:53.378Z,87479.00
2023-02-24T11:25:53.367Z,87479.00
2023-02-24T11:26:53.312Z,87477.00
2023-02-24T11:27:53.286Z,87477.00
2023-02-24T11:28:53.252Z,87479.00
2023-02-24T11:29:53.220Z,87485.00
2023-02-24T11:30:53.375Z,87470.00
2023-02-24T11:31:53.266Z,87472.00
2023-02-24T11:32:53.142Z,87466.00
2023-02-24T11:33:53.088Z,87468.00
2023-02-24T11:34:53.054Z,87470.00
2023-02-24T11:35:53.028Z,87468.00
2023-02-24T11:36:52.996Z,87468.00
2023-02-24T11:37:52.986Z,87470.00
2023-02-24T11:38:52.937Z,87464.00
2023-02-24T11:39:52.900Z,87462.00
2023-02-24T11:40:52.872Z,87458.00
2023-02-24T11:41:52.837Z,87460.00
2023-02-24T11:42:52.814Z,87464.00
2023-02-24T11:43:52.774Z,87464.00
2023-02-24T11:44:52.741Z,87454.00
2023-02-24T11:45:52.749Z,87456.00
2023-02-24T11:46:52.676Z,87460.00
2023-02-24T11:47:52.648Z,87452.00
2023-02-24T11:48:52.617Z,87448.00
2023-02-24T11:49:52.591Z,87452.00
2023-02-24T11:50:52.580Z,87437.00
2023-02-24T11:51:52.543Z,87431.00
2023-02-24T11:52:52.498Z,87419.00
2023-02-24T11:53:52.477Z,87427.00
2023-02-24T11:54:52.448Z,87433.00
2023-02-24T11:55:52.408Z,87433.00
2023-02-24T11:56:52.378Z,87431.00
2023-02-24T11:57:52.324Z,87427.00
2023-02-24T11:58:52.303Z,87425.00
2023-02-24T11:59:52.255Z,87423.00
2023-02-24T12:00:52.233Z,87423.00
2023-02-24T12:01:52.200Z,87425.00
2023-02-24T12:02:52.183Z,87423.00
2023-02-24T12:03:52.181Z,87415.00
2023-02-24T12:04:52.092Z,87421.00
2023-02-24T12:05:52.185Z,87406.00
2023-02-24T12:06:52.027Z,87414.00
2023-02-24T12:07:52.009Z,87410.00
2023-02-24T12:08:51.958Z,87412.00
2023-02-24T12:09:53.680Z,87410.00
2023-02-24T12:10:51.926Z,87415.00
2023-02-24T12:11:51.860Z,87406.00
2023-02-24T12:12:51.801Z,87400.00
2023-02-24T12:13:51.764Z,87398.00
2023-02-24T12:14:51.739Z,87392.00
2023-02-24T12:15:51.734Z,87398.00
2023-02-24T12:16:51.738Z,87400.00
2023-02-24T12:17:51.628Z,87402.00
2023-02-24T12:18:51.597Z,87390.00
2023-02-24T12:19:51.567Z,87386.00
2023-02-24T12:20:51.575Z,87394.00
2023-02-24T12:21:51.493Z,87392.00
2023-02-24T12:22:51.467Z,87388.00
2023-02-24T12:23:51.410Z,87388.00
2023-02-24T12:24:51.373Z,87388.00
2023-02-24T12:25:51.341Z,87394.00
2023-02-24T12:26:51.306Z,87388.00
2023-02-24T12:27:51.276Z,87388.00
2023-02-24T12:28:51.238Z,87380.00
2023-02-24T12:29:51.213Z,87378.00
2023-02-24T12:30:51.223Z,87378.00
2023-02-24T12:31:51.288Z,87386.00
2023-02-24T12:32:51.168Z,87386.00
2023-02-24T12:33:51.052Z,87384.00
2023-02-24T12:34:51.012Z,87376.00
2023-02-24T12:35:50.983Z,87374.00
2023-02-24T12:36:50.947Z,87378.00
2023-02-24T12:37:50.921Z,87376.00
2023-02-24T12:38:50.877Z,87376.00
2023-02-24T12:39:50.848Z,87370.00
2023-02-24T12:40:50.811Z,87370.00
2023-02-24T12:41:50.783Z,87362.00
2023-02-24T12:42:50.743Z,87366.00
2023-02-24T12:43:50.717Z,87374.00
2023-02-24T12:44:50.679Z,87364.00
2023-02-24T12:45:50.679Z,87360.00
2023-02-24T12:46:50.612Z,87370.00
2023-02-24T12:47:50.577Z,87370.00
2023-02-24T12:48:50.549Z,87370.00
2023-02-24T12:49:50.513Z,87366.00
2023-02-24T12:50:50.479Z,87362.00
2023-02-24T12:51:50.446Z,87362.00
2023-02-24T12:52:50.417Z,87355.00
2023-02-24T12:53:50.388Z,87362.00
2023-02-24T12:54:50.348Z,87362.00
2023-02-24T12:55:50.320Z,87357.00
2023-02-24T12:56:50.288Z,87353.00
2023-02-24T12:57:50.255Z,87355.00
2023-02-24T12:58:50.286Z,87355.00
2023-02-24T12:59:50.202Z,87351.00
2023-02-24T13:00:50.181Z,87355.00
2023-02-24T13:01:50.135Z,87347.00
2023-02-24T13:02:50.111Z,87351.00
2023-02-24T13:03:50.061Z,87347.00
2023-02-24T13:04:50.063Z,87343.00
2023-02-24T13:05:49.997Z,87345.00
2023-02-24T13:06:49.975Z,87341.00
2023-02-24T13:07:49.949Z,87341.00
2023-02-24T13:08:49.906Z,87341.00
2023-02-24T13:09:49.871Z,87333.00
2023-02-24T13:10:49.840Z,87331.00
2023-02-24T13:11:49.818Z,87333.00
2023-02-24T13:12:49.779Z,87331.00
2023-02-24T13:13:49.742Z,87327.00
2023-02-24T13:14:49.764Z,87329.00
2023-02-24T13:15:49.701Z,87331.00
2023-02-24T13:16:49.741Z,87329.00
2023-02-24T13:17:49.632Z,87329.00
2023-02-24T13:18:49.608Z,87325.00
2023-02-24T13:19:49.569Z,87321.00
2023-02-24T13:20:49.543Z,87319.00
2023-02-24T13:21:49.511Z,87321.00
2023-02-24T13:22:49.481Z,87321.00
2023-02-24T13:23:49.444Z,87321.00
2023-02-24T13:24:49.412Z,87323.00
2023-02-24T13:25:49.386Z,87317.00
2023-02-24T13:26:49.345Z,87321.00
2023-02-24T13:27:49.342Z,87319.00
2023-02-24T13:28:49.310Z,87317.00
2023-02-24T13:29:49.259Z,87313.00
2023-02-24T13:30:49.275Z,87315.00
2023-02-24T13:31:49.333Z,87315.00
2023-02-24T13:32:49.306Z,87317.00
2023-02-24T13:33:49.118Z,87317.00
2023-02-24T13:34:49.109Z,87311.00
2023-02-24T13:35:49.092Z,87309.00
2023-02-24T13:36:49.047Z,87309.00
2023-02-24T13:37:49.015Z,87304.00
2023-02-24T13:38:48.992Z,87308.00
2023-02-24T13:39:48.954Z,87306.00
2023-02-24T13:40:48.917Z,87302.00
2023-02-24T13:41:48.939Z,87298.00
2023-02-24T13:42:48.857Z,87296.00
2023-02-24T13:43:48.824Z,87300.00
2023-02-24T13:44:48.785Z,87298.00
2023-02-24T13:45:48.953Z,87296.00
2023-02-24T13:46:48.727Z,87294.00
2023-02-24T13:47:48.694Z,87302.00
2023-02-24T13:48:48.661Z,87300.00
2023-02-24T13:49:48.650Z,87296.00
2023-02-24T13:50:48.599Z,87298.00
2023-02-24T13:51:48.562Z,87296.00
2023-02-24T13:52:48.538Z,87294.00
2023-02-24T13:53:48.505Z,87294.00
2023-02-24T13:54:48.470Z,87290.00
2023-02-24T13:55:48.437Z,87282.00
2023-02-24T13:56:48.412Z,87288.00
2023-02-24T13:57:48.375Z,87288.00
2023-02-24T13:58:48.334Z,87286.00
2023-02-24T13:59:48.316Z,87284.00
2023-02-24T14:00:48.280Z,87286.00
2023-02-24T14:01:48.341Z,87284.00
2023-02-24T14:02:48.288Z,87286.00
2023-02-24T14:03:48.214Z,87280.00
2023-02-24T14:04:48.155Z,87280.00
2023-02-24T14:05:48.114Z,87276.00
2023-02-24T14:06:48.084Z,87278.00
2023-02-24T14:07:48.065Z,87278.00
2023-02-24T14:08:48.030Z,87282.00
2023-02-24T14:09:48.001Z,87278.00
2023-02-24T14:10:47.961Z,87276.00
2023-02-24T14:11:47.938Z,87274.00
2023-02-24T14:12:47.927Z,87274.00
2023-02-24T14:13:47.868Z,87276.00
2023-02-24T14:14:47.855Z,87274.00
2023-02-24T14:15:47.901Z,87268.00
2023-02-24T14:16:47.777Z,87268.00
2023-02-24T14:17:47.791Z,87262.00
2023-02-24T14:18:47.721Z,87268.00
2023-02-24T14:19:47.716Z,87274.00
2023-02-24T14:20:47.656Z,87266.00
2023-02-24T14:21:47.629Z,87262.00
2023-02-24T14:22:47.596Z,87258.00
2023-02-24T14:23:47.558Z,87260.00
2023-02-24T14:24:47.528Z,87260.00
2023-02-24T14:25:47.483Z,87254.00
2023-02-24T14:26:47.461Z,87245.00
2023-02-24T14:27:47.425Z,87254.00
2023-02-24T14:28:47.398Z,87241.00
2023-02-24T14:29:47.363Z,87245.00
2023-02-24T14:30:47.383Z,87247.00
2023-02-24T14:31:47.395Z,87245.00
2023-02-24T14:32:47.327Z,87245.00
2023-02-24T14:33:47.237Z,87241.00
2023-02-24T14:34:47.210Z,87239.00
2023-02-24T14:35:47.169Z,87239.00
2023-02-24T14:36:47.136Z,87239.00
2023-02-24T14:37:47.107Z,87233.00
2023-02-24T14:38:47.079Z,87229.00
2023-02-24T14:39:47.039Z,87231.00
2023-02-24T14:40:47.010Z,87231.00
2023-02-24T14:41:46.984Z,87231.00
2023-02-24T14:42:46.949Z,87229.00
2023-02-24T14:43:46.922Z,87227.00
2023-02-24T14:44:46.888Z,87225.00
2023-02-24T14:45:46.858Z,87223.00
2023-02-24T14:46:46.910Z,87225.00
2023-02-24T14:47:46.791Z,87223.00
2023-02-24T14:48:46.775Z,87219.00
2023-02-24T14:49:46.741Z,87219.00
2023-02-24T14:50:46.705Z,87217.00
2023-02-24T14:51:46.682Z,87219.00
2023-02-24T14:52:46.648Z,87217.00
2023-02-24T14:53:46.629Z,87219.00
2023-02-24T14:54:46.589Z,87217.00
2023-02-24T14:55:46.602Z,87219.00
2023-02-24T14:56:46.521Z,87217.00
2023-02-24T14:57:46.490Z,87213.00
2023-02-24T14:58:46.463Z,87213.00
2023-02-24T14:59:46.421Z,87213.00
2023-02-24T15:00:46.396Z,87211.00
2023-02-24T15:01:46.455Z,87209.00
2023-02-24T15:02:46.374Z,87207.00
2023-02-24T15:03:46.375Z,87213.00
2023-02-24T15:04:46.293Z,87205.00
2023-02-24T15:05:46.249Z,87209.00
2023-02-24T15:06:46.218Z,87207.00
2023-02-24T15:07:46.220Z,87207.00
2023-02-24T15:08:46.182Z,87205.00
2023-02-24T15:09:46.136Z,87201.00
2023-02-24T15:10:46.100Z,87201.00
2023-02-24T15:11:46.066Z,87198.00
2023-02-24T15:12:46.055Z,87194.00
2023-02-24T15:13:46.012Z,87192.00
2023-02-24T15:14:45.981Z,87192.00
2023-02-24T15:15:45.976Z,87192.00
2023-02-24T15:16:45.924Z,87185.00
2023-02-24T15:17:45.897Z,87185.00
2023-02-24T15:18:45.862Z,87183.00
2023-02-24T15:19:45.836Z,87192.00
2023-02-24T15:20:45.839Z,87183.00
2023-02-24T15:21:45.788Z,87192.00
2023-02-24T15:22:45.750Z,87185.00
2023-02-24T15:23:45.694Z,87192.00
2023-02-24T17:11:42.621Z,87126.00
2023-02-24T17:12:42.593Z,87132.00
2023-02-24T17:13:42.549Z,87134.00
2023-02-24T17:15:42.489Z,87124.00
2023-02-24T17:16:42.489Z,87128.00
2023-02-24T17:17:42.432Z,87124.00
2023-02-24T17:18:42.398Z,87124.00
2023-02-24T17:19:42.365Z,87126.00
2023-02-24T17:20:42.342Z,87126.00
2023-02-24T17:21:42.296Z,87122.00
2023-02-24T17:22:42.269Z,87120.00
2023-02-24T17:23:42.234Z,87124.00
2023-02-24T17:24:42.198Z,87122.00
2023-02-24T17:25:42.175Z,87124.00
2023-02-24T17:26:42.134Z,87124.00
2023-02-24T17:27:42.112Z,87126.00
2023-02-24T17:28:42.085Z,87128.00
2023-02-24T17:29:42.042Z,87126.00
2023-02-24T17:30:42.198Z,87128.00